OEMA/MED METAR and TAF weather

Enter ICAO airport designator
Station Type Date Time Source
OEMA METAR 2020/09/27 00:00 UTC NOAA

OEMA 270000Z 34009KT CAVOK 30/M02 Q1011 NOSIG


Station Type Date Time Source
OEMA Decoded METAR 2020/09/27 00:00 UTC NOAA

Madinah, Saudi Arabia (OEMA) 24-33N 039-42E 636M
Sep 26, 2020 - 08:00 PM EDT / 2020.09.27 0000 UTC
Wind: from the NNW (340 degrees) at 10 MPH (9 KT):0
Visibility: greater than 7 mile(s):0
Temperature: 86 F (30 C)
Dew Point: 28 F (-2 C)
Relative Humidity: 12%
Pressure (altimeter): 29.85 in. Hg (1011 hPa)
ob: OEMA 270000Z 34009KT CAVOK 30/M02 Q1011 NOSIG
cycle: 0

Station Type Date Time Source
OEMA TAF 2020/09/26 18:18 UTC NOAA

TAF OEMA 261700Z 2618/2724 35005KT CAVOK
BECMG 2700/2702 10006KT
BECMG 2706/2708 25008KT
BECMG 2716/2718 03010KT

Example: see airport list